createdAt,value
2018-08-28T00:01:40.884Z,101222.73
2018-08-28T00:04:09.425Z,101224.46
2018-08-28T00:06:37.523Z,101224.83
2018-08-28T00:09:06.008Z,101220.50
2018-08-28T00:11:34.236Z,101230.02
2018-08-28T00:14:02.924Z,101225.94
2018-08-28T00:16:31.711Z,101232.47
2018-08-28T00:19:00.091Z,101229.23
2018-08-28T00:21:29.865Z,101229.53
2018-08-28T00:23:58.570Z,101235.61
2018-08-28T00:26:27.284Z,101234.76
2018-08-28T00:28:55.741Z,101241.61
2018-08-28T00:31:24.048Z,101249.34
2018-08-28T00:33:52.691Z,101248.34
2018-08-28T00:36:21.411Z,101244.27
2018-08-28T00:38:49.865Z,101246.98
2018-08-28T00:41:18.482Z,101252.69
2018-08-28T00:43:47.413Z,101244.91
2018-08-28T00:46:16.072Z,101250.55
2018-08-28T00:48:44.367Z,101250.43
2018-08-28T00:51:13.049Z,101251.64
2018-08-28T00:53:41.937Z,101254.36
2018-08-28T00:56:10.244Z,101257.44
2018-08-28T00:58:39.092Z,101257.17
2018-08-28T01:01:07.525Z,101261.09
2018-08-28T01:03:35.963Z,101261.94
2018-08-28T01:06:04.793Z,101259.38
2018-08-28T01:08:33.416Z,101260.58
2018-08-28T01:11:02.187Z,101264.17
2018-08-28T01:13:30.811Z,101264.38
2018-08-28T01:15:59.784Z,101262.08
2018-08-28T01:18:29.321Z,101250.36
2018-08-28T01:20:57.752Z,101264.26
2018-08-28T01:23:26.482Z,101266.83
2018-08-28T01:25:55.014Z,101266.09
2018-08-28T01:28:23.886Z,101270.70
2018-08-28T01:30:52.167Z,101272.53
2018-08-28T01:33:20.672Z,101271.90
2018-08-28T01:35:48.819Z,101275.62
2018-08-28T01:38:17.224Z,101275.25
2018-08-28T01:40:45.795Z,101276.04
2018-08-28T01:43:19.924Z,101277.41
2018-08-28T01:45:48.512Z,101281.48
2018-08-28T01:48:17.164Z,101276.41
2018-08-28T01:50:46.119Z,101281.57
2018-08-28T01:53:14.723Z,101285.65
2018-08-28T01:55:43.360Z,101286.34
2018-08-28T01:58:11.785Z,101290.42
2018-08-28T02:00:40.258Z,101280.42
2018-08-28T02:03:08.896Z,101282.14
2018-08-28T02:05:37.842Z,101279.42
2018-08-28T02:08:06.812Z,101278.42
2018-08-28T02:10:35.619Z,101279.27
2018-08-28T02:13:04.149Z,101281.35
2018-08-28T02:15:33.012Z,101277.27
2018-08-28T02:18:19.583Z,101283.20
2018-08-28T02:21:06.260Z,101289.00
2018-08-28T02:23:53.368Z,101281.56
2018-08-28T02:26:39.839Z,101283.28
2018-08-28T02:29:26.684Z,101278.20
2018-08-28T02:32:13.356Z,101288.57
2018-08-28T02:35:00.095Z,101288.94
2018-08-28T02:37:47.852Z,101290.81
2018-08-28T02:40:16.675Z,101285.13
2018-08-28T02:42:45.279Z,101291.92
2018-08-28T02:45:13.543Z,101289.09
2018-08-28T02:47:42.448Z,101288.94
2018-08-28T02:50:10.897Z,101288.78
2018-08-28T02:52:39.896Z,101287.66
2018-08-28T02:55:08.512Z,101288.50
2018-08-28T02:57:37.233Z,101293.22
2018-08-28T03:00:05.843Z,101301.02
2018-08-28T03:02:34.759Z,101295.94
2018-08-28T03:05:03.949Z,101303.98
2018-08-28T03:07:32.399Z,101303.63
2018-08-28T03:10:01.219Z,101303.73
2018-08-28T03:12:30.277Z,101305.61
2018-08-28T03:14:58.884Z,101308.48
2018-08-28T03:17:27.789Z,101308.03
2018-08-28T03:19:56.663Z,101310.33
2018-08-28T03:22:25.244Z,101317.03
2018-08-28T03:24:53.487Z,101314.11
2018-08-28T03:27:21.689Z,101307.46
2018-08-28T03:29:50.128Z,101313.38
2018-08-28T03:32:18.580Z,101310.09
2018-08-28T03:34:46.895Z,101315.11
2018-08-28T03:37:15.229Z,101324.63
2018-08-28T03:39:43.600Z,101326.13
2018-08-28T03:42:11.717Z,101333.20
2018-08-28T03:44:40.209Z,101329.27
2018-08-28T03:47:08.993Z,101332.98
2018-08-28T03:49:37.684Z,101335.34
2018-08-28T03:52:06.137Z,101335.34
2018-08-28T03:54:34.828Z,101343.64
2018-08-28T03:57:03.871Z,101340.20
2018-08-28T03:59:31.962Z,101339.84
2018-08-28T04:02:01.212Z,101341.19
2018-08-28T04:04:29.979Z,101345.64
2018-08-28T04:06:58.084Z,101343.22
2018-08-28T04:09:26.206Z,101338.11
2018-08-28T04:11:55.167Z,101342.34
2018-08-28T04:14:23.561Z,101340.25
2018-08-28T04:16:52.376Z,101345.47
2018-08-28T04:19:20.924Z,101350.18
2018-08-28T04:21:49.372Z,101347.91
2018-08-28T04:24:18.139Z,101357.42
2018-08-28T04:26:46.537Z,101356.06
2018-08-28T04:29:14.681Z,101358.78
2018-08-28T04:31:43.012Z,101360.62
2018-08-28T04:34:11.952Z,101355.34
2018-08-28T04:36:40.076Z,101365.69
2018-08-28T04:39:08.671Z,101361.77
2018-08-28T04:41:36.988Z,101361.25
2018-08-28T04:44:05.090Z,101370.28
2018-08-28T04:46:33.524Z,101378.55
2018-08-28T04:49:01.741Z,101374.98
2018-08-28T04:51:30.455Z,101379.58
2018-08-28T04:53:59.412Z,101382.63
2018-08-28T04:56:28.093Z,101377.56
2018-08-28T04:58:56.763Z,101387.80
2018-08-28T05:01:24.859Z,101386.30
2018-08-28T05:03:52.952Z,101390.47
2018-08-28T05:06:21.387Z,101399.20
2018-08-28T05:08:49.835Z,101393.41
2018-08-28T05:11:18.499Z,101401.41
2018-08-28T05:13:47.232Z,101404.50
2018-08-28T05:16:15.692Z,101407.10
2018-08-28T05:18:44.125Z,101405.95
2018-08-28T05:21:12.547Z,101412.60
2018-08-28T05:23:41.288Z,101422.85
2018-08-28T05:26:10.020Z,101418.47
2018-08-28T05:28:38.916Z,101423.17
2018-08-28T05:31:07.252Z,101422.50
2018-08-28T05:33:36.309Z,101425.47
2018-08-28T05:36:04.619Z,101416.54
2018-08-28T05:38:33.036Z,101426.48
2018-08-28T05:41:01.464Z,101423.83
2018-08-28T05:43:30.625Z,101428.52
2018-08-28T05:45:59.241Z,101423.30
2018-08-28T05:48:27.350Z,101419.58
2018-08-28T05:50:55.436Z,101430.67
2018-08-28T05:53:23.833Z,101431.62
2018-08-28T05:55:52.311Z,101431.47
2018-08-28T05:58:20.863Z,101439.82
2018-08-28T06:00:49.491Z,101431.75
2018-08-28T06:03:18.322Z,101439.61
2018-08-28T06:05:46.848Z,101442.55
2018-08-28T06:08:15.055Z,101436.47
2018-08-28T06:10:43.784Z,101440.77
2018-08-28T06:13:12.239Z,101453.38
2018-08-28T06:15:40.673Z,101445.42
2018-08-28T06:18:09.401Z,101449.38
2018-08-28T06:20:38.447Z,101452.89
2018-08-28T06:23:07.000Z,101448.81
2018-08-28T06:25:35.519Z,101452.98
2018-08-28T06:28:04.253Z,101447.44
2018-08-28T06:30:32.359Z,101453.45
2018-08-28T06:33:00.779Z,101445.38
2018-08-28T06:35:30.675Z,101456.42
2018-08-28T06:37:59.416Z,101455.98
2018-08-28T06:40:27.865Z,101462.06
2018-08-28T06:42:56.514Z,101470.52
2018-08-28T06:45:24.958Z,101459.20
2018-08-28T06:47:53.429Z,101465.85
2018-08-28T06:50:21.565Z,101465.06
2018-08-28T06:52:50.269Z,101468.08
2018-08-28T06:55:18.982Z,101462.03
2018-08-28T06:57:47.392Z,101462.67
2018-08-28T07:00:15.890Z,101465.80
2018-08-28T07:02:44.611Z,101464.17
2018-08-28T07:05:13.035Z,101459.19
2018-08-28T07:07:42.014Z,101468.16
2018-08-28T07:10:10.544Z,101467.01
2018-08-28T07:12:39.505Z,101475.85
2018-08-28T07:15:07.640Z,101472.61
2018-08-28T07:17:36.368Z,101465.56
2018-08-28T07:20:04.979Z,101472.44
2018-08-28T07:22:33.377Z,101468.92
2018-08-28T07:25:02.129Z,101473.08
2018-08-28T07:27:30.927Z,101478.40
2018-08-28T07:29:59.145Z,101477.47
2018-08-28T07:32:27.580Z,101484.91
2018-08-28T07:34:56.472Z,101479.70
2018-08-28T07:37:24.588Z,101480.69
2018-08-28T07:39:53.145Z,101490.18
2018-08-28T07:42:21.279Z,101492.14
2018-08-28T07:44:49.727Z,101491.69
2018-08-28T07:47:18.116Z,101487.45
2018-08-28T07:49:46.832Z,101485.89
2018-08-28T07:52:15.451Z,101494.30
2018-08-28T07:54:44.127Z,101496.96
2018-08-28T07:57:12.603Z,101501.84
2018-08-28T07:59:40.721Z,101502.44
2018-08-28T08:02:09.475Z,101504.80
2018-08-28T08:04:37.980Z,101500.97
2018-08-28T08:07:07.284Z,101502.20
2018-08-28T08:09:36.039Z,101503.03
2018-08-28T08:12:04.400Z,101498.88
2018-08-28T08:14:32.873Z,101510.22
2018-08-28T08:17:02.092Z,101510.41
2018-08-28T08:19:30.722Z,101510.95
2018-08-28T08:21:59.561Z,101511.34
2018-08-28T08:24:27.948Z,101511.14
2018-08-28T08:26:56.701Z,101511.44
2018-08-28T08:29:25.422Z,101514.53
2018-08-28T08:31:53.912Z,101517.63
2018-08-28T08:34:22.456Z,101521.45
2018-08-28T08:36:50.608Z,101519.62
2018-08-28T08:39:18.963Z,101518.46
2018-08-28T08:41:47.693Z,101521.64
2018-08-28T08:44:16.124Z,101516.68
2018-08-28T08:46:44.535Z,101523.90
2018-08-28T08:49:12.832Z,101521.86
2018-08-28T08:51:40.945Z,101514.70
2018-08-28T08:54:09.636Z,101517.46
2018-08-28T08:56:37.747Z,101514.22
2018-08-28T08:59:06.714Z,101515.95
2018-08-28T09:01:35.632Z,101514.23
2018-08-28T09:04:04.383Z,101514.23
2018-08-28T09:06:33.021Z,101518.16
2018-08-28T09:09:02.069Z,101516.79
2018-08-28T09:11:30.892Z,101501.87
2018-08-28T09:13:59.423Z,101506.64
2018-08-28T09:16:27.861Z,101505.41
2018-08-28T09:18:56.599Z,101502.77
2018-08-28T09:21:25.095Z,101503.35
2018-08-28T09:23:53.884Z,101500.03
2018-08-28T09:26:22.395Z,101507.33
2018-08-28T09:28:50.844Z,101503.75
2018-08-28T09:31:19.549Z,101499.96
2018-08-28T09:33:47.991Z,101493.91
2018-08-28T09:36:16.592Z,101495.84
2018-08-28T09:38:45.106Z,101497.03
2018-08-28T09:41:13.789Z,101499.02
2018-08-28T09:43:42.279Z,101504.01
2018-08-28T09:46:10.870Z,101498.55
2018-08-28T09:48:39.541Z,101495.00
2018-08-28T09:51:08.252Z,101495.27
2018-08-28T09:53:36.773Z,101495.70
2018-08-28T09:56:05.948Z,101497.23
2018-08-28T09:58:34.103Z,101503.62
2018-08-28T10:01:08.240Z,101505.69
2018-08-28T10:03:37.041Z,101501.80
2018-08-28T10:06:06.078Z,101507.28
2018-08-28T10:08:34.493Z,101500.44
2018-08-28T10:11:03.019Z,101500.78
2018-08-28T10:13:31.896Z,101484.45
2018-08-28T10:16:00.013Z,101502.73
2018-08-28T10:18:28.188Z,101502.80
2018-08-28T10:20:56.305Z,101500.53
2018-08-28T10:23:24.832Z,101504.73
2018-08-28T10:25:53.297Z,101513.80
2018-08-28T10:28:22.172Z,101507.02
2018-08-28T10:30:51.073Z,101507.34
2018-08-28T10:33:19.304Z,101501.89
2018-08-28T10:35:48.031Z,101505.03
2018-08-28T10:38:16.690Z,101509.88
2018-08-28T10:40:45.363Z,101509.08
2018-08-28T10:43:13.777Z,101513.55
2018-08-28T10:45:42.794Z,101515.80
2018-08-28T10:48:10.904Z,101514.27
2018-08-28T10:50:38.999Z,101523.19
2018-08-28T10:53:07.431Z,101520.97
2018-08-28T10:55:36.199Z,101518.77
2018-08-28T10:58:04.628Z,101516.02
2018-08-28T11:00:32.865Z,101519.10
2018-08-28T11:03:01.306Z,101525.63
2018-08-28T11:05:30.718Z,101525.30
2018-08-28T11:07:58.832Z,101524.11
2018-08-28T11:10:27.280Z,101526.86
2018-08-28T11:12:55.975Z,101526.38
2018-08-28T11:15:24.333Z,101529.13
2018-08-28T11:17:53.267Z,101530.99
2018-08-28T11:20:22.087Z,101538.89
2018-08-28T11:22:50.592Z,101534.59
2018-08-28T11:25:19.472Z,101528.77
2018-08-28T11:27:47.864Z,101528.75
2018-08-28T11:30:16.009Z,101536.81
2018-08-28T11:32:44.878Z,101536.64
2018-08-28T11:35:13.328Z,101540.05
2018-08-28T11:37:42.231Z,101536.45
2018-08-28T11:40:10.609Z,101540.23
2018-08-28T11:42:39.283Z,101535.42
2018-08-28T11:45:07.494Z,101538.67
2018-08-28T11:47:36.091Z,101540.05
2018-08-28T11:50:04.434Z,101539.23
2018-08-28T11:52:32.853Z,101543.52
2018-08-28T11:55:01.218Z,101544.57
2018-08-28T11:57:31.588Z,101544.21
2018-08-28T12:00:00.141Z,101544.73
2018-08-28T12:07:23.358Z,101553.31
2018-08-28T12:09:52.100Z,101545.06
2018-08-28T12:12:21.087Z,101546.09
2018-08-28T12:14:49.715Z,101542.84
2018-08-28T12:17:18.483Z,101537.72
2018-08-28T12:19:59.832Z,101541.84
2018-08-28T12:22:40.740Z,101531.87
2018-08-28T12:25:21.477Z,101529.83
2018-08-28T12:28:02.553Z,101538.05
2018-08-28T12:30:43.435Z,101528.58
2018-08-28T12:33:23.875Z,101525.13
2018-08-28T12:36:04.820Z,101527.05
2018-08-28T12:38:45.719Z,101524.28
2018-08-28T12:41:26.520Z,101527.53
2018-08-28T12:44:07.021Z,101521.97
2018-08-28T12:46:47.705Z,101519.50
2018-08-28T12:49:16.069Z,101512.36
2018-08-28T12:51:44.519Z,101506.11
2018-08-28T12:54:13.623Z,101502.27
2018-08-28T12:56:42.523Z,101507.66
2018-08-28T12:59:11.016Z,101505.13
2018-08-28T13:01:39.372Z,101500.84
2018-08-28T13:04:07.796Z,101497.51
2018-08-28T13:06:36.396Z,101492.98
2018-08-28T13:09:06.223Z,101496.55
2018-08-28T13:11:34.348Z,101503.75
2018-08-28T13:14:03.056Z,101497.49
2018-08-28T13:16:31.960Z,101491.42
2018-08-28T13:19:00.087Z,101495.83
2018-08-28T13:21:28.781Z,101489.77
2018-08-28T13:23:57.400Z,101492.09
2018-08-28T13:26:26.325Z,101489.17
2018-08-28T13:28:54.785Z,101486.50
2018-08-28T13:31:23.264Z,101483.64
2018-08-28T13:33:51.851Z,101484.02
2018-08-28T13:36:20.820Z,101485.20
2018-08-28T13:38:49.399Z,101475.84
2018-08-28T13:41:17.513Z,101473.49
2018-08-28T13:43:46.418Z,101473.52
2018-08-28T13:46:14.890Z,101470.16
2018-08-28T13:48:43.877Z,101475.07
2018-08-28T13:51:12.128Z,101469.64
2018-08-28T13:53:41.053Z,101465.62
2018-08-28T13:56:09.860Z,101466.80
2018-08-28T13:58:38.240Z,101455.48
2018-08-28T14:01:19.013Z,101459.44
2018-08-28T14:03:59.712Z,101454.85
2018-08-28T14:06:40.372Z,101462.62
2018-08-28T14:09:08.868Z,101449.88
2018-08-28T14:11:37.589Z,101442.34
2018-08-28T14:14:06.187Z,101454.86
2018-08-28T14:16:35.001Z,101446.67
2018-08-28T14:19:03.337Z,101449.64
2018-08-28T14:21:33.355Z,101440.73
2018-08-28T14:24:01.690Z,101441.68
2018-08-28T14:26:30.120Z,101451.53
2018-08-28T14:28:59.133Z,101446.62
2018-08-28T14:31:28.007Z,101438.59
2018-08-28T14:33:56.304Z,101447.08
2018-08-28T14:36:24.975Z,101440.50
2018-08-28T14:38:53.524Z,101443.20
2018-08-28T14:41:21.944Z,101447.88
2018-08-28T14:43:50.367Z,101448.19
2018-08-28T14:46:18.667Z,101452.01
2018-08-28T14:48:47.331Z,101448.28
2018-08-28T14:51:15.960Z,101443.90
2018-08-28T14:53:44.945Z,101442.77
2018-08-28T14:56:13.776Z,101440.39
2018-08-28T14:58:42.731Z,101436.67
2018-08-28T15:01:11.716Z,101438.88
2018-08-28T15:03:40.689Z,101437.95
2018-08-28T15:06:09.641Z,101431.44
2018-08-28T15:08:38.601Z,101428.55
2018-08-28T15:11:07.484Z,101426.33
2018-08-28T15:13:36.409Z,101424.28
2018-08-28T15:16:04.872Z,101423.25
2018-08-28T15:18:33.829Z,101426.44
2018-08-28T15:21:02.704Z,101415.23
2018-08-28T15:23:31.960Z,101420.48
2018-08-28T15:26:02.927Z,101421.70
2018-08-28T15:28:32.034Z,101422.17
2018-08-28T15:31:00.732Z,101422.58
2018-08-28T15:33:28.831Z,101425.94
2018-08-28T15:35:57.557Z,101429.37
2018-08-28T15:38:25.992Z,101431.95
2018-08-28T15:40:54.524Z,101434.57
2018-08-28T15:43:22.955Z,101429.77
2018-08-28T15:45:51.452Z,101426.71
2018-08-28T15:48:19.983Z,101419.72
2018-08-28T15:50:48.856Z,101421.56
2018-08-28T15:53:17.330Z,101420.41
2018-08-28T15:55:45.933Z,101418.33
2018-08-28T15:58:14.719Z,101418.80
2018-08-28T16:00:43.112Z,101412.53
2018-08-28T16:03:11.704Z,101414.91
2018-08-28T16:05:39.815Z,101412.50
2018-08-28T16:08:08.363Z,101412.30
2018-08-28T16:10:37.183Z,101413.17
2018-08-28T16:13:05.560Z,101419.18
2018-08-28T16:15:34.065Z,101406.85
2018-08-28T16:18:02.978Z,101405.50
2018-08-28T16:20:32.089Z,101408.12
2018-08-28T16:23:03.137Z,101412.12
2018-08-28T16:25:32.300Z,101408.22
2018-08-28T16:28:01.241Z,101410.63
2018-08-28T16:30:29.873Z,101406.16
2018-08-28T16:32:58.312Z,101408.50
2018-08-28T16:35:26.804Z,101409.57
2018-08-28T16:37:55.243Z,101401.88
2018-08-28T16:40:23.757Z,101403.11
2018-08-28T16:42:52.296Z,101403.84
2018-08-28T16:45:20.861Z,101399.11
2018-08-28T16:47:49.790Z,101393.69
2018-08-28T16:50:18.859Z,101397.66
2018-08-28T16:52:47.735Z,101400.21
2018-08-28T16:55:16.061Z,101394.73
2018-08-28T16:57:44.673Z,101393.55
2018-08-28T17:00:13.131Z,101394.78
2018-08-28T17:02:41.543Z,101394.33
2018-08-28T17:05:10.202Z,101382.77
2018-08-28T17:07:38.620Z,101383.53
2018-08-28T17:10:07.285Z,101389.44
2018-08-28T17:12:36.247Z,101383.14
2018-08-28T17:15:04.999Z,101384.09
2018-08-28T17:17:40.476Z,101383.61
2018-08-28T17:20:09.067Z,101381.93
2018-08-28T17:22:37.771Z,101388.76
2018-08-28T17:25:06.254Z,101382.73
2018-08-28T17:27:35.175Z,101383.26
2018-08-28T17:30:04.172Z,101378.80
2018-08-28T17:32:32.586Z,101372.45
2018-08-28T17:35:01.316Z,101373.30
2018-08-28T17:42:57.050Z,101369.28
2018-08-28T17:45:25.704Z,101366.24
2018-08-28T18:22:30.174Z,101375.52
2018-08-28T18:25:00.226Z,101379.11
2018-08-28T18:27:28.701Z,101378.09
2018-08-28T18:29:57.149Z,101376.90
2018-08-28T18:32:25.263Z,101376.23
2018-08-28T18:34:53.682Z,101376.05
2018-08-28T18:37:22.150Z,101376.58
2018-08-28T18:39:51.422Z,101376.76
2018-08-28T18:42:20.170Z,101381.89
2018-08-28T18:44:48.272Z,101384.73
2018-08-28T18:47:17.195Z,101383.53
2018-08-28T18:49:45.953Z,101381.30
2018-08-28T18:52:14.400Z,101385.19
2018-08-28T18:57:36.693Z,101382.74
2018-08-28T19:00:05.217Z,101376.86
2018-08-28T19:02:34.156Z,101374.61
2018-08-28T19:05:02.610Z,101371.67
2018-08-28T19:07:32.472Z,101371.28
2018-08-28T19:10:01.342Z,101373.31
2018-08-28T19:12:30.213Z,101369.66
2018-08-28T19:14:58.582Z,101372.36
2018-08-28T19:17:26.977Z,101370.81
2018-08-28T19:19:55.541Z,101373.50
2018-08-28T19:22:24.157Z,101374.52
2018-08-28T19:24:52.581Z,101362.70
2018-08-28T19:27:21.481Z,101371.08
2018-08-28T19:29:49.877Z,101366.44
2018-08-28T19:32:18.321Z,101368.11
2018-08-28T19:40:29.060Z,101363.86
2018-08-28T19:42:57.797Z,101369.14
2018-08-28T19:45:26.223Z,101367.06
2018-08-28T19:47:56.298Z,101364.02
2018-08-28T19:50:24.833Z,101361.38
2018-08-28T19:52:53.269Z,101354.89
2018-08-28T19:55:21.713Z,101355.37
2018-08-28T19:57:49.890Z,101350.87
2018-08-28T20:00:18.377Z,101348.97
2018-08-28T20:02:46.789Z,101341.11
2018-08-28T20:05:15.413Z,101346.70
2018-08-28T20:07:43.959Z,101337.31
2018-08-28T20:10:12.380Z,101345.68
2018-08-28T20:12:40.493Z,101337.44
2018-08-28T20:15:08.612Z,101332.45
2018-08-28T20:17:37.585Z,101332.73
2018-08-28T20:22:33.945Z,101334.97
2018-08-28T20:25:02.438Z,101339.50
2018-08-28T20:27:30.541Z,101331.91
2018-08-28T20:29:59.290Z,101332.71
2018-08-28T20:32:28.216Z,101330.81
2018-08-28T20:34:56.658Z,101338.59
2018-08-28T20:37:25.447Z,101334.44
2018-08-28T20:39:53.994Z,101336.52
2018-08-28T20:42:22.634Z,101327.61
2018-08-28T20:44:51.329Z,101341.78
2018-08-28T20:47:19.777Z,101339.73
2018-08-28T20:49:48.518Z,101335.80
2018-08-28T20:52:17.261Z,101328.95
2018-08-28T20:54:45.641Z,101324.44
2018-08-28T20:57:14.731Z,101321.63
2018-08-28T20:59:43.152Z,101333.24
2018-08-28T21:02:11.811Z,101324.80
2018-08-28T21:04:40.665Z,101324.77
2018-08-28T21:07:09.156Z,101321.63
2018-08-28T21:09:38.026Z,101317.89
2018-08-28T21:12:06.367Z,101318.61
2018-08-28T21:14:34.852Z,101318.61
2018-08-28T21:17:03.635Z,101313.25
2018-08-28T21:19:33.145Z,101311.88
2018-08-28T21:22:01.255Z,101309.81
2018-08-28T21:24:29.894Z,101309.97
2018-08-28T21:26:58.530Z,101304.94
2018-08-28T21:29:26.848Z,101307.23
2018-08-28T21:31:55.737Z,101311.29
2018-08-28T21:34:24.109Z,101307.48
2018-08-28T21:36:53.170Z,101306.77
2018-08-28T21:39:21.605Z,101301.64
2018-08-28T21:41:49.708Z,101298.69
2018-08-28T21:44:18.413Z,101292.61
2018-08-28T21:46:46.906Z,101294.22
2018-08-28T21:49:15.224Z,101295.16
2018-08-28T21:51:44.094Z,101286.42
2018-08-28T21:54:12.320Z,101292.88
2018-08-28T21:56:40.582Z,101295.92
2018-08-28T21:59:09.071Z,101295.64
2018-08-28T22:01:37.829Z,101293.88
2018-08-28T22:04:06.537Z,101287.59
2018-08-28T22:06:40.454Z,101291.96
2018-08-28T22:09:09.477Z,101289.47
2018-08-28T22:11:38.161Z,101281.70
2018-08-28T22:14:06.605Z,101278.69
2018-08-28T22:16:35.073Z,101278.97
2018-08-28T22:19:03.277Z,101285.21
2018-08-28T22:21:33.165Z,101282.28
2018-08-28T22:24:01.824Z,101279.84
2018-08-28T22:26:30.220Z,101282.56
2018-08-28T22:28:58.682Z,101284.65
2018-08-28T22:31:27.169Z,101287.52
2018-08-28T22:33:55.625Z,101284.95
2018-08-28T22:36:24.055Z,101283.72
2018-08-28T22:38:52.741Z,101281.52
2018-08-28T22:41:21.497Z,101279.64
2018-08-28T22:43:49.942Z,101276.80
2018-08-28T22:46:18.630Z,101270.99
2018-08-28T22:48:47.084Z,101272.62
2018-08-28T22:51:15.497Z,101274.58
2018-08-28T22:53:43.863Z,101271.05
2018-08-28T22:56:12.421Z,101268.40
2018-08-28T22:58:41.054Z,101266.11
2018-08-28T23:01:09.412Z,101275.06
2018-08-28T23:03:38.133Z,101271.62
2018-08-28T23:06:06.732Z,101269.53
2018-08-28T23:08:35.181Z,101261.53
2018-08-28T23:11:03.502Z,101260.32
2018-08-28T23:13:33.137Z,101245.12
2018-08-28T23:16:02.508Z,101245.80
2018-08-28T23:18:30.952Z,101250.30
2018-08-28T23:20:59.464Z,101252.09
2018-08-28T23:23:27.589Z,101239.77
2018-08-28T23:25:56.093Z,101245.56
2018-08-28T23:28:24.782Z,101243.00
2018-08-28T23:30:53.237Z,101235.99
2018-08-28T23:33:21.945Z,101236.47
2018-08-28T23:35:50.085Z,101234.12
2018-08-28T23:38:19.104Z,101230.25
2018-08-28T23:40:47.509Z,101234.33
2018-08-28T23:43:16.004Z,101232.76
2018-08-28T23:45:45.010Z,101228.74
2018-08-28T23:48:13.105Z,101221.02
2018-08-28T23:50:42.113Z,101218.36
2018-08-28T23:53:10.879Z,101214.73
2018-08-28T23:55:39.325Z,101217.88
2018-08-28T23:58:07.895Z,101210.78
